createdAt,value
2023-01-23T00:00:19.895Z,99254.91
2023-01-23T00:02:49.233Z,99248.19
2023-01-23T00:05:18.191Z,99237.31
2023-01-23T00:07:47.762Z,99246.56
2023-01-23T00:10:16.869Z,99224.84
2023-01-23T00:12:46.938Z,99240.72
2023-01-23T00:15:16.977Z,99234.91
2023-01-23T00:17:46.157Z,99217.41
2023-01-23T00:20:15.490Z,99213.28
2023-01-23T00:22:44.441Z,99211.69
2023-01-23T00:25:13.341Z,99189.28
2023-01-23T00:27:42.299Z,99190.09
2023-01-23T00:30:11.837Z,99160.97
2023-01-23T00:32:41.200Z,99152.72
2023-01-23T00:35:10.246Z,99149.53
2023-01-23T00:37:39.216Z,99147.09
2023-01-23T00:40:09.300Z,99149.59
2023-01-23T00:42:41.782Z,99132.94
2023-01-23T00:45:11.049Z,99129.59
2023-01-23T00:47:39.910Z,99136.19
2023-01-23T00:50:09.336Z,99129.59
2023-01-23T00:52:38.477Z,99131.28
2023-01-23T00:55:08.118Z,99121.25
2023-01-23T00:57:37.217Z,99107.09
2023-01-23T01:00:07.505Z,99115.50
2023-01-23T01:02:36.948Z,99109.69
2023-01-23T01:05:06.188Z,99099.72
2023-01-23T01:07:35.076Z,99098.09
2023-01-23T01:10:05.050Z,99098.97
2023-01-23T01:12:34.155Z,99096.47
2023-01-23T01:15:03.426Z,99101.44
2023-01-23T01:17:33.587Z,99094.00
2023-01-23T01:20:03.178Z,99072.38
2023-01-23T01:22:32.574Z,99079.03
2023-01-23T01:25:01.577Z,99087.34
2023-01-23T01:27:31.716Z,99065.72
2023-01-23T01:30:00.581Z,99055.75
2023-01-23T01:32:29.412Z,99058.28
2023-01-23T01:34:58.226Z,99049.97
2023-01-23T01:37:27.144Z,99054.19
2023-01-23T01:39:56.197Z,99030.91
2023-01-23T01:42:29.133Z,99029.22
2023-01-23T01:44:58.017Z,99024.25
2023-01-23T01:47:28.128Z,99010.13
2023-01-23T01:50:02.396Z,99006.78
2023-01-23T01:52:33.403Z,99002.63
2023-01-23T01:55:05.130Z,99000.13
2023-01-23T01:57:41.984Z,98983.44
2023-01-23T02:00:20.516Z,98993.41
2023-01-23T02:02:56.045Z,98976.75
2023-01-23T02:05:32.252Z,98973.34
2023-01-23T02:08:05.426Z,98978.31
2023-01-23T02:10:36.881Z,98972.38
2023-01-23T02:13:33.658Z,98973.00
2023-01-23T02:16:15.032Z,98964.91
2023-01-23T02:18:48.574Z,98963.97
2023-01-23T02:21:25.402Z,98950.38
2023-01-23T02:24:13.493Z,98940.66
2023-01-23T02:26:45.589Z,98934.66
2023-01-23T02:29:16.786Z,98937.00
2023-01-23T02:31:53.519Z,98935.81
2023-01-23T02:34:24.399Z,98924.63
2023-01-23T02:36:54.100Z,98927.91
2023-01-23T02:39:25.540Z,98920.38
2023-01-23T02:41:57.086Z,98913.41
2023-01-23T02:44:40.015Z,98903.50
2023-01-23T02:47:13.158Z,98909.34
2023-01-23T02:49:43.652Z,98899.53
2023-01-23T02:52:13.792Z,98890.63
2023-01-23T02:54:42.693Z,98880.84
2023-01-23T02:57:12.580Z,98881.78
2023-01-23T02:59:59.982Z,98889.81
2023-01-23T03:02:30.099Z,98888.53
2023-01-23T03:04:59.617Z,98877.56
2023-01-23T03:07:31.936Z,98865.56
2023-01-23T03:10:00.840Z,98852.31
2023-01-23T03:12:29.854Z,98849.38
2023-01-23T03:14:59.426Z,98854.97
2023-01-23T03:17:29.505Z,98847.25
2023-01-23T03:19:59.011Z,98830.47
2023-01-23T03:22:28.408Z,98835.50
2023-01-23T03:24:58.490Z,98833.66
2023-01-23T03:27:27.325Z,98842.19
2023-01-23T03:30:17.799Z,98823.72
2023-01-23T03:32:47.023Z,98827.16
2023-01-23T03:35:17.854Z,98827.53
2023-01-23T03:37:50.655Z,98815.38
2023-01-23T03:40:40.183Z,98813.31
2023-01-23T03:43:11.413Z,98799.31
2023-01-23T03:45:46.490Z,98788.63
2023-01-23T03:48:15.379Z,98789.50
2023-01-23T03:50:46.983Z,98786.41
2023-01-23T03:53:15.892Z,98784.13
2023-01-23T03:55:48.553Z,98781.78
2023-01-23T03:58:18.392Z,98766.00
2023-01-23T04:00:49.566Z,98776.06
2023-01-23T04:03:18.817Z,98750.94
2023-01-23T04:05:50.014Z,98752.34
2023-01-23T04:08:19.660Z,98747.88
2023-01-23T04:10:49.233Z,98745.88
2023-01-23T04:13:18.678Z,98739.72
2023-01-23T04:15:47.744Z,98722.88
2023-01-23T04:18:17.919Z,98717.34
2023-01-23T04:20:46.811Z,98702.44
2023-01-23T04:23:15.807Z,98728.22
2023-01-23T04:25:44.894Z,98712.84
2023-01-23T04:28:16.309Z,98719.22
2023-01-23T04:30:47.256Z,98698.81
2023-01-23T04:33:22.079Z,98685.94
2023-01-23T04:35:56.968Z,98685.22
2023-01-23T04:38:30.384Z,98675.81
2023-01-23T04:41:06.046Z,98676.28
2023-01-23T04:43:39.169Z,98663.78
2023-01-23T04:46:11.279Z,98672.19
2023-01-23T04:48:55.463Z,98663.59
2023-01-23T04:51:25.449Z,98639.22
2023-01-23T04:53:54.319Z,98633.13
2023-01-23T04:56:24.550Z,98630.09
2023-01-23T04:58:54.463Z,98613.56
2023-01-23T05:01:25.909Z,98607.72
2023-01-23T05:04:04.117Z,98606.47
2023-01-23T05:06:34.378Z,98597.97
2023-01-23T05:09:03.555Z,98593.38
2023-01-23T05:11:40.573Z,98589.16
2023-01-23T05:14:11.815Z,98594.50
2023-01-23T05:16:42.321Z,98591.63
2023-01-23T05:19:21.333Z,98582.34
2023-01-23T05:21:51.159Z,98582.84
2023-01-23T05:24:23.014Z,98563.84
2023-01-23T05:26:52.581Z,98561.38
2023-01-23T05:29:22.508Z,98559.22
2023-01-23T05:32:01.397Z,98559.22
2023-01-23T05:34:39.560Z,98558.78
2023-01-23T05:37:34.644Z,98550.91
2023-01-23T05:40:09.535Z,98552.13
2023-01-23T05:43:07.561Z,98554.28
2023-01-23T05:46:03.872Z,98546.69
2023-01-23T05:48:54.558Z,98540.19
2023-01-23T05:51:24.483Z,98539.06
2023-01-23T05:53:54.688Z,98532.78
2023-01-23T05:56:23.912Z,98525.03
2023-01-23T05:59:11.190Z,98510.00
2023-01-23T06:01:49.376Z,98517.78
2023-01-23T06:04:55.740Z,98489.22
2023-01-23T06:07:44.878Z,98491.69
2023-01-23T06:10:14.016Z,98469.47
2023-01-23T06:12:43.022Z,98469.06
2023-01-23T06:15:12.511Z,98461.41
2023-01-23T06:17:41.740Z,98445.28
2023-01-23T06:20:13.004Z,98445.34
2023-01-23T06:22:45.345Z,98439.56
2023-01-23T06:25:15.665Z,98433.22
2023-01-23T06:27:44.541Z,98419.75
2023-01-23T06:30:15.395Z,98425.38
2023-01-23T06:32:47.544Z,98410.00
2023-01-23T06:35:21.262Z,98402.53
2023-01-23T06:37:51.584Z,98395.09
2023-01-23T06:40:22.279Z,98383.31
2023-01-23T06:43:07.729Z,98372.56
2023-01-23T06:45:36.858Z,98385.47
2023-01-23T06:48:06.800Z,98387.91
2023-01-23T06:50:35.817Z,98379.72
2023-01-23T06:53:05.989Z,98375.97
2023-01-23T06:55:35.211Z,98367.34
2023-01-23T06:58:04.326Z,98362.94
2023-01-23T07:00:37.400Z,98365.66
2023-01-23T07:03:09.467Z,98353.13
2023-01-23T07:05:41.844Z,98345.66
2023-01-23T07:08:11.387Z,98351.41
2023-01-23T07:10:40.681Z,98338.97
2023-01-23T07:13:11.831Z,98340.94
2023-01-23T07:15:41.377Z,98337.84
2023-01-23T07:18:11.049Z,98329.31
2023-01-23T07:20:40.219Z,98304.56
2023-01-23T07:23:10.971Z,98320.91
2023-01-23T07:25:40.914Z,98316.66
2023-01-23T07:28:09.929Z,98303.50
2023-01-23T07:30:38.964Z,98299.59
2023-01-23T07:33:08.272Z,98293.81
2023-01-23T07:35:40.095Z,98280.44
2023-01-23T07:38:09.185Z,98275.47
2023-01-23T07:40:39.617Z,98271.56
2023-01-23T07:43:08.541Z,98270.25
2023-01-23T07:45:38.677Z,98275.41
2023-01-23T07:48:07.620Z,98266.50
2023-01-23T07:50:38.709Z,98264.13
2023-01-23T07:53:08.103Z,98261.44
2023-01-23T07:55:39.447Z,98247.06
2023-01-23T07:58:08.530Z,98242.31
2023-01-23T08:00:38.610Z,98230.78
2023-01-23T08:03:07.714Z,98231.13
2023-01-23T08:05:36.778Z,98223.69
2023-01-23T08:08:13.512Z,98216.97
2023-01-23T08:10:43.339Z,98212.84
2023-01-23T08:13:12.433Z,98201.09
2023-01-23T08:15:41.563Z,98191.41
2023-01-23T08:18:10.521Z,98194.59
2023-01-23T08:20:39.560Z,98178.66
2023-01-23T08:23:08.572Z,98169.47
2023-01-23T08:25:39.543Z,98158.84
2023-01-23T08:28:08.538Z,98144.56
2023-01-23T08:30:38.316Z,98141.97
2023-01-23T08:33:07.368Z,98141.97
2023-01-23T08:35:36.391Z,98131.09
2023-01-23T08:38:05.866Z,98131.56
2023-01-23T08:40:34.798Z,98134.03
2023-01-23T08:43:03.776Z,98112.34
2023-01-23T08:45:32.828Z,98109.97
2023-01-23T08:48:03.774Z,98120.06
2023-01-23T08:50:32.659Z,98106.63
2023-01-23T08:53:01.890Z,98098.28
2023-01-23T08:55:33.001Z,98079.72
2023-01-23T08:58:02.041Z,98090.31
2023-01-23T09:00:31.843Z,98094.59
2023-01-23T09:03:02.319Z,98108.28
2023-01-23T09:05:31.931Z,98099.66
2023-01-23T09:08:00.987Z,98103.91
2023-01-23T09:10:29.920Z,98106.31
2023-01-23T09:12:59.327Z,98105.50
2023-01-23T09:15:28.309Z,98096.41
2023-01-23T09:17:57.554Z,98089.91
2023-01-23T09:20:27.440Z,98068.13
2023-01-23T09:22:56.277Z,98080.75
2023-01-23T09:25:25.273Z,98071.84
2023-01-23T09:27:54.207Z,98061.16
2023-01-23T09:30:23.299Z,98067.69
2023-01-23T09:32:52.305Z,98069.25
2023-01-23T09:35:21.411Z,98057.84
2023-01-23T09:38:00.463Z,98055.19
2023-01-23T09:40:50.992Z,98035.59
2023-01-23T09:43:32.100Z,98018.47
2023-01-23T09:46:31.616Z,98015.88
2023-01-23T09:49:12.449Z,98004.78
2023-01-23T09:51:59.820Z,97993.03
2023-01-23T09:54:45.728Z,97967.06
2023-01-23T09:57:26.281Z,97975.00
2023-01-23T10:00:32.711Z,97959.94
2023-01-23T10:03:05.463Z,97951.34
2023-01-23T10:06:12.958Z,97945.38
2023-01-23T10:09:18.259Z,97942.09
2023-01-23T10:12:11.279Z,97924.31
2023-01-23T10:14:58.829Z,97913.19
2023-01-23T10:17:33.574Z,97915.66
2023-01-23T10:20:22.513Z,97897.28
2023-01-23T10:23:15.678Z,97898.59
2023-01-23T10:25:44.924Z,97891.16
2023-01-23T10:28:35.870Z,97886.63
2023-01-23T10:31:12.039Z,97880.00
2023-01-23T10:33:49.101Z,97869.59
2023-01-23T10:36:47.471Z,97857.59
2023-01-23T10:39:29.467Z,97852.13
2023-01-23T10:42:02.373Z,97843.53
2023-01-23T10:44:32.080Z,97835.88
2023-01-23T10:47:05.781Z,97835.53
2023-01-23T10:49:38.377Z,97826.16
2023-01-23T10:52:38.990Z,97796.75
2023-01-23T10:55:20.656Z,97812.69
2023-01-23T10:57:55.825Z,97809.88
2023-01-23T11:00:36.700Z,97806.13
2023-01-23T11:03:30.846Z,97797.22
2023-01-23T11:06:07.736Z,97795.75
2023-01-23T11:08:39.564Z,97787.06
2023-01-23T11:11:17.655Z,97782.16
2023-01-23T11:13:48.986Z,97763.25
2023-01-23T11:16:23.659Z,97755.13
2023-01-23T11:19:23.595Z,97748.25
2023-01-23T11:22:00.808Z,97738.81
2023-01-23T11:24:41.731Z,97729.19
2023-01-23T11:27:17.109Z,97739.72
2023-01-23T11:30:01.633Z,97729.34
2023-01-23T11:32:42.115Z,97704.94
2023-01-23T11:35:22.539Z,97714.41
2023-01-23T11:37:52.594Z,97717.28
2023-01-23T11:40:21.747Z,97708.44
2023-01-23T11:42:50.761Z,97703.09
2023-01-23T11:45:28.451Z,97694.34
2023-01-23T11:48:01.768Z,97681.16
2023-01-23T11:50:55.727Z,97694.13
2023-01-23T11:53:42.967Z,97692.97
2023-01-23T11:56:42.350Z,97676.38
2023-01-23T11:59:50.066Z,97685.66
2023-01-23T12:02:53.528Z,97672.81
2023-01-23T12:05:28.247Z,97670.28
2023-01-23T12:08:15.213Z,97666.44
2023-01-23T12:11:14.371Z,97665.19
2023-01-23T12:14:16.226Z,97634.25
2023-01-23T12:16:53.935Z,97629.34
2023-01-23T12:19:31.679Z,97624.09
2023-01-23T12:22:07.207Z,97628.09
2023-01-23T12:24:39.137Z,97611.78
2023-01-23T12:27:17.201Z,97602.25
2023-01-23T12:30:34.434Z,97595.50
2023-01-23T12:33:19.141Z,97588.69
2023-01-23T12:36:09.600Z,97582.44
2023-01-23T12:39:09.415Z,97577.91
2023-01-23T12:41:54.716Z,97569.00
2023-01-23T12:44:49.927Z,97556.94
2023-01-23T12:47:39.471Z,97551.56
2023-01-23T12:50:17.548Z,97541.50
2023-01-23T12:53:09.844Z,97533.81
2023-01-23T12:56:02.721Z,97514.31
2023-01-23T12:58:37.010Z,97521.16
2023-01-23T13:01:16.804Z,97511.22
2023-01-23T13:04:03.916Z,97513.97
2023-01-23T13:06:58.978Z,97509.00
2023-01-23T13:10:07.372Z,97510.72
2023-01-23T13:12:37.475Z,97484.81
2023-01-23T13:15:31.041Z,97479.16
2023-01-23T13:18:04.469Z,97475.91
2023-01-23T13:20:54.410Z,97474.78
2023-01-23T13:23:33.466Z,97477.31
2023-01-23T13:26:29.601Z,97456.63
2023-01-23T13:29:04.463Z,97455.75
2023-01-23T13:31:50.914Z,97450.16
2023-01-23T13:34:19.858Z,97444.97
2023-01-23T13:36:50.278Z,97424.75
2023-01-23T13:39:20.209Z,97426.31
2023-01-23T13:42:12.516Z,97419.72
2023-01-23T13:45:20.330Z,97401.94
2023-01-23T14:20:40.961Z,97376.69
2023-01-23T14:23:38.186Z,97361.84
2023-01-23T14:26:12.018Z,97364.16
2023-01-23T14:28:41.161Z,97352.00
2023-01-23T14:31:29.417Z,97351.56
2023-01-23T14:34:17.948Z,97340.28
2023-01-23T14:36:52.164Z,97323.91
2023-01-23T14:39:40.937Z,97320.72
2023-01-23T14:42:32.731Z,97327.34
2023-01-23T14:45:03.130Z,97287.41
2023-01-23T14:47:47.126Z,97307.50
2023-01-23T14:50:23.485Z,97316.66
2023-01-23T14:53:01.091Z,97307.56
2023-01-23T14:55:31.788Z,97306.88
2023-01-23T14:58:01.610Z,97301.06
2023-01-23T15:00:32.302Z,97280.72
2023-01-23T15:03:01.543Z,97247.53
2023-01-23T15:05:30.838Z,97274.81
2023-01-23T15:08:03.726Z,97273.34
2023-01-23T15:10:47.420Z,97265.53
2023-01-23T15:13:36.082Z,97248.38
2023-01-23T15:16:16.359Z,97239.47
2023-01-23T15:18:59.948Z,97258.31
2023-01-23T15:21:35.193Z,97258.44
2023-01-23T15:24:10.256Z,97255.78
2023-01-23T15:26:42.188Z,97232.19
2023-01-23T15:29:11.032Z,97245.97
2023-01-23T15:31:40.038Z,97236.59
2023-01-23T15:34:15.065Z,97230.38
2023-01-23T15:36:52.195Z,97217.88
2023-01-23T15:39:23.496Z,97212.09
2023-01-23T15:42:03.126Z,97200.06
2023-01-23T15:44:33.956Z,97202.59
2023-01-23T15:47:06.137Z,97172.31
2023-01-23T15:49:37.643Z,97178.13
2023-01-23T15:52:27.763Z,97175.91
2023-01-23T15:55:08.063Z,97168.63
2023-01-23T15:57:37.083Z,97164.34
2023-01-23T16:00:20.471Z,97160.50
2023-01-23T16:02:56.225Z,97155.91
2023-01-23T16:05:28.889Z,97155.78
2023-01-23T16:08:01.720Z,97142.50
2023-01-23T16:10:36.631Z,97137.72
2023-01-23T16:13:07.469Z,97131.50
2023-01-23T16:15:37.727Z,97127.31
2023-01-23T16:18:07.602Z,97121.44
2023-01-23T16:20:39.608Z,97118.06
2023-01-23T16:23:16.732Z,97107.78
2023-01-23T16:25:46.586Z,97109.06
2023-01-23T16:28:18.458Z,97117.72
2023-01-23T16:30:48.574Z,97109.84
2023-01-23T16:33:17.794Z,97094.94
2023-01-23T16:35:47.641Z,97099.09
2023-01-23T16:38:24.618Z,97080.94
2023-01-23T16:40:55.903Z,97094.78
2023-01-23T16:43:24.944Z,97091.09
2023-01-23T16:45:56.272Z,97095.94
2023-01-23T16:48:28.252Z,97084.59
2023-01-23T16:51:02.173Z,97081.00
2023-01-23T16:53:42.880Z,97075.91
2023-01-23T16:56:35.968Z,97077.66
2023-01-23T16:59:15.800Z,97068.63
2023-01-23T17:01:48.704Z,97068.50
2023-01-23T17:04:22.124Z,97076.81
2023-01-23T17:06:51.581Z,97063.16
2023-01-23T17:09:20.401Z,97064.22
2023-01-23T17:11:57.106Z,97056.13
2023-01-23T17:14:31.354Z,97058.41
2023-01-23T17:17:08.200Z,97052.81
2023-01-23T17:19:42.061Z,97055.28
2023-01-23T17:22:33.227Z,97053.28
2023-01-23T17:25:02.083Z,97044.59
2023-01-23T17:27:41.685Z,97041.56
2023-01-23T17:30:20.637Z,97045.50
2023-01-23T17:32:58.459Z,97033.31
2023-01-23T17:35:37.063Z,97026.00
2023-01-23T17:38:07.459Z,97024.13
2023-01-23T17:40:36.274Z,97013.81
2023-01-23T17:43:05.359Z,97009.41
2023-01-23T17:45:34.372Z,97013.81
2023-01-23T17:48:03.387Z,97012.50
2023-01-23T17:50:32.515Z,97003.50
2023-01-23T17:53:01.480Z,96992.25
2023-01-23T17:55:33.082Z,96998.16
2023-01-23T17:58:02.265Z,96986.84
2023-01-23T18:00:32.456Z,96989.44
2023-01-23T18:03:03.976Z,96985.03
2023-01-23T18:05:36.544Z,96978.97
2023-01-23T18:08:05.971Z,96973.50
2023-01-23T18:10:35.966Z,96966.50
2023-01-23T18:13:14.245Z,96964.38
2023-01-23T18:15:46.180Z,96965.88
2023-01-23T18:18:34.791Z,96954.97
2023-01-23T18:21:06.669Z,96960.78
2023-01-23T18:23:37.335Z,96947.91
2023-01-23T18:26:23.952Z,96951.50
2023-01-23T18:29:04.375Z,96950.19
2023-01-23T18:31:52.722Z,96944.31
2023-01-23T18:34:52.633Z,96941.63
2023-01-23T18:37:39.833Z,96920.25
2023-01-23T18:40:30.103Z,96921.72
2023-01-23T18:43:30.835Z,96928.31
2023-01-23T18:46:00.065Z,96920.25
2023-01-23T18:48:29.448Z,96913.41
2023-01-23T18:51:36.865Z,96909.38
2023-01-23T18:54:33.590Z,96900.66
2023-01-23T18:57:20.485Z,96895.56
2023-01-23T19:00:13.535Z,96893.31
2023-01-23T19:02:56.882Z,96888.53
2023-01-23T19:05:34.358Z,96887.69
2023-01-23T19:08:03.703Z,96878.47
2023-01-23T19:10:48.151Z,96866.53
2023-01-23T19:13:25.439Z,96862.97
2023-01-23T19:16:02.638Z,96859.47
2023-01-23T19:18:39.847Z,96856.00
2023-01-23T19:21:17.055Z,96858.84
2023-01-23T19:24:01.616Z,96854.38
2023-01-23T19:26:35.946Z,96853.03
2023-01-23T19:29:20.633Z,96846.19
2023-01-23T19:32:07.242Z,96839.63
2023-01-23T19:34:36.102Z,96825.41
2023-01-23T19:37:05.560Z,96824.72
2023-01-23T19:39:34.524Z,96829.16
2023-01-23T19:42:04.297Z,96812.50
2023-01-23T19:44:34.146Z,96789.41
2023-01-23T19:47:04.087Z,96816.25
2023-01-23T19:49:33.000Z,96819.25
2023-01-23T19:52:02.540Z,96797.22
2023-01-23T19:54:31.467Z,96800.56
2023-01-23T19:57:00.408Z,96800.97
2023-01-23T19:59:29.436Z,96792.53
2023-01-23T20:01:59.299Z,96785.69
2023-01-23T20:04:28.484Z,96784.06
2023-01-23T20:06:57.399Z,96781.25
2023-01-23T20:09:26.282Z,96766.91
2023-01-23T20:11:55.164Z,96768.66
2023-01-23T20:14:25.644Z,96777.53
2023-01-23T20:16:54.842Z,96773.47
2023-01-23T20:19:24.301Z,96767.97
2023-01-23T20:21:53.188Z,96756.44
2023-01-23T20:24:22.081Z,96744.75
2023-01-23T20:26:50.977Z,96748.38
2023-01-23T20:29:19.882Z,96740.03
2023-01-23T20:31:48.926Z,96739.91
2023-01-23T20:34:18.238Z,96729.28
2023-01-23T20:36:47.109Z,96732.22
2023-01-23T20:39:16.227Z,96726.59
2023-01-23T20:41:45.062Z,96719.34
2023-01-23T20:44:13.961Z,96721.22
2023-01-23T20:46:42.795Z,96715.69
2023-01-23T20:49:15.008Z,96713.16
2023-01-23T20:51:43.913Z,96700.00
2023-01-23T20:54:12.800Z,96703.75
2023-01-23T20:56:41.794Z,96697.31
2023-01-23T20:59:19.710Z,96704.03
2023-01-23T21:02:08.202Z,96712.06
2023-01-23T21:04:38.117Z,96706.72
2023-01-23T21:07:06.941Z,96706.84
2023-01-23T21:09:35.825Z,96694.22
2023-01-23T21:12:04.936Z,96696.09
2023-01-23T21:14:33.824Z,96690.06
2023-01-23T21:17:03.024Z,96671.09
2023-01-23T21:19:33.172Z,96688.72
2023-01-23T21:22:02.176Z,96684.25
2023-01-23T21:24:34.931Z,96673.25
2023-01-23T21:27:05.154Z,96674.47
2023-01-23T21:29:34.807Z,96674.75
2023-01-23T21:32:03.704Z,96666.16
2023-01-23T21:34:32.762Z,96663.03
2023-01-23T21:37:01.690Z,96657.78
2023-01-23T21:39:30.662Z,96656.72
2023-01-23T21:41:59.541Z,96653.06
2023-01-23T21:44:28.718Z,96647.81
2023-01-23T21:46:57.532Z,96638.94
2023-01-23T21:49:26.448Z,96620.53
2023-01-23T21:51:55.315Z,96630.34
2023-01-23T21:54:24.542Z,96634.22
2023-01-23T21:56:53.491Z,96632.31
2023-01-23T21:59:22.422Z,96622.66
2023-01-23T22:01:52.277Z,96623.97
2023-01-23T22:04:24.881Z,96612.72
2023-01-23T22:06:56.336Z,96616.31
2023-01-23T22:09:26.666Z,96615.63
2023-01-23T22:11:56.383Z,96611.84
2023-01-23T22:14:25.465Z,96602.03
2023-01-23T22:16:54.370Z,96613.72
2023-01-23T22:19:25.757Z,96605.91
2023-01-23T22:21:55.885Z,96613.63
2023-01-23T22:24:24.802Z,96607.44
2023-01-23T22:26:53.778Z,96602.84
2023-01-23T22:29:23.607Z,96609.59
2023-01-23T22:31:53.085Z,96603.63
2023-01-23T22:34:22.841Z,96610.31
2023-01-23T22:36:52.279Z,96609.66
2023-01-23T22:39:21.626Z,96606.44
2023-01-23T22:41:53.503Z,96609.22
2023-01-23T22:44:22.424Z,96598.63
2023-01-23T22:46:52.235Z,96595.84
2023-01-23T22:49:21.961Z,96599.94
2023-01-23T22:51:52.635Z,96594.72
2023-01-23T22:54:21.561Z,96587.56
2023-01-23T22:56:50.386Z,96573.31
2023-01-23T22:59:19.135Z,96579.75
2023-01-23T23:01:48.507Z,96576.69
2023-01-23T23:04:17.536Z,96576.25
2023-01-23T23:06:46.508Z,96565.47
2023-01-23T23:09:15.355Z,96578.56
2023-01-23T23:11:45.288Z,96581.81
2023-01-23T23:14:14.082Z,96578.66
2023-01-23T23:16:42.884Z,96568.31
2023-01-23T23:19:13.049Z,96572.66
2023-01-23T23:21:42.067Z,96573.34
2023-01-23T23:24:14.569Z,96568.22
2023-01-23T23:26:43.467Z,96554.69
2023-01-23T23:29:12.370Z,96562.72
2023-01-23T23:31:41.657Z,96555.31
2023-01-23T23:34:10.637Z,96541.88
2023-01-23T23:36:39.988Z,96568.25
2023-01-23T23:39:08.889Z,96566.94
2023-01-23T23:41:37.971Z,96559.41
2023-01-23T23:44:06.914Z,96573.06
2023-01-23T23:46:35.853Z,96571.31
2023-01-23T23:49:04.728Z,96565.31
2023-01-23T23:51:33.622Z,96567.38
2023-01-23T23:54:02.628Z,96572.91
2023-01-23T23:56:32.797Z,96569.91
2023-01-23T23:59:01.685Z,96577.50
